This is the latest recevied weather packets stored in our database for station/object KK6LVQ-13. If no packets are shown the sender has not sent any weather packets the latest 10 day(s).
| Time | Temp. | Humidity | Pressure | Rain* | Wind** | Luminosity | Snow |
|---|---|---|---|---|---|---|---|
| 1777762564 | 17.78° C | 74% | 1016.8 hPa | 0 mm | - | 421 W/m² | - |
| 1777762261 | 18.33° C | 75% | 1016.8 hPa | 0 mm | - | 609 W/m² | - |
| 1777761957 | 17.78° C | 74% | 1017 hPa | 0 mm | - | 593 W/m² | - |
| 1777761654 | 18.33° C | 73% | 1017 hPa | 0 mm | - | 624 W/m² | - |
| 1777761352 | 17.78° C | 74% | 1017.1 hPa | 0 mm | - | 567 W/m² | - |
| 1777761050 | 17.78° C | 74% | 1017.1 hPa | 0 mm | - | 584 W/m² | - |
| 1777760747 | 17.78° C | 75% | 1017.4 hPa | 0 mm | - | 658 W/m² | - |
| 1777760443 | 17.78° C | 74% | 1017.3 hPa | 0 mm | - | 585 W/m² | - |
| 1777760139 | 18.33° C | 73% | 1017.6 hPa | 0 mm | - | 622 W/m² | - |
| 1777759837 | 17.78° C | 74% | 1017.5 hPa | 0 mm | - | 682 W/m² | - |
| 1777759532 | 17.78° C | 73% | 1017.8 hPa | 0 mm | - | 678 W/m² | - |
| 1777759229 | 17.78° C | 75% | 1017.7 hPa | 0 mm | - | 732 W/m² | - |
| 1777758927 | 17.78° C | 75% | 1017.9 hPa | 0 mm | - | 381 W/m² | - |
| 1777758623 | 17.78° C | 75% | 1017.9 hPa | 0 mm | - | 737 W/m² | - |
| 1777758320 | 17.22° C | 76% | 1017.7 hPa | 0 mm | - | 727 W/m² | - |
| 1777758018 | 17.78° C | 75% | 1017.9 hPa | 0 mm | - | 717 W/m² | - |
| 1777757714 | 17.78° C | 75% | 1017.9 hPa | 0 mm | - | 714 W/m² | - |
| 1777757413 | 18.89° C | 73% | 1017.8 hPa | 0 mm | - | 756 W/m² | - |
| 1777757111 | 18.89° C | 71% | 1018 hPa | 0 mm | - | 804 W/m² | - |
| 1777756808 | 18.33° C | 71% | 1018 hPa | 0 mm | - | 807 W/m² | - |
| 1777756504 | 17.22° C | 75% | 1018 hPa | 0 mm | - | 749 W/m² | - |
| 1777756201 | 17.78° C | 72% | 1018.3 hPa | 0 mm | - | 800 W/m² | - |
| 1777755898 | 17.22° C | 74% | 1018.3 hPa | 0 mm | - | 891 W/m² | - |
| 1777755595 | 17.78° C | 75% | 1018.4 hPa | 0 mm | - | 367 W/m² | - |
| 1777755291 | 16.67° C | 76% | 1018.4 hPa | 0 mm | - | 414 W/m² | - |
* Rain latest hour (hover to see other rain measurements)
** Current wind speed in m/s (hover to see current wind gust speed)